Time;durP1;ratioP1;P1;durP2;ratioP2;P2;SDS_P1;SDS_P2;PMS_P1;PMS_P2;Temp;Humidity;BMP_temperature;BMP_pressure;BME280_temperature;BME280_humidity;BME280_pressure;Samples;Min_cycle;Max_cycle;Signal;HPM_P1;HPM_P2
2022/04/19 00:01:50;;;;;;;;;16.67;12.33;;;;;14.32;60.09;100802.78;4874280;29;45654;-82
2022/04/19 00:04:18;;;;;;;;;11.33;11.33;;;;;14.23;60.28;100770.69;4891254;29;46497;-83
2022/04/19 00:06:44;;;;;;;;;16.67;16.00;;;;;14.33;60.13;100791.19;4874540;29;45475;-82
2022/04/19 00:09:10;;;;;;;;;13.00;13.00;;;;;14.26;60.58;100784.97;4876605;29;44750;-82
2022/04/19 00:11:36;;;;;;;;;18.00;15.00;;;;;14.18;59.58;100790.31;4876548;29;45536;-83
2022/04/19 00:14:02;;;;;;;;;12.33;11.00;;;;;14.16;59.75;100783.19;4875749;29;47121;-82
2022/04/19 00:16:27;;;;;;;;;12.33;11.33;;;;;14.09;59.28;100773.38;4876086;29;45461;-82
2022/04/19 00:18:52;;;;;;;;;5.00;5.00;;;;;14.05;60.28;100774.25;4892962;28;45415;-82
2022/04/19 00:21:19;;;;;;;;;14.00;11.33;;;;;13.94;61.00;100779.59;4875058;29;45407;-81
2022/04/19 00:23:46;;;;;;;;;16.67;11.67;;;;;13.89;60.98;100786.72;4874440;29;47189;-82
2022/04/19 00:26:12;;;;;;;;;12.00;11.00;;;;;13.74;60.38;100771.56;4891641;29;44942;-81
2022/04/19 00:28:37;;;;;;;;;12.67;10.00;;;;;13.75;59.92;100773.31;4872925;29;45493;-81
2022/04/19 00:31:04;;;;;;;;;13.33;10.00;;;;;13.71;59.21;100766.19;4873533;29;44918;-80
2022/04/19 00:33:30;;;;;;;;;12.00;11.33;;;;;13.84;59.09;100781.38;4874396;29;45440;-82
2022/04/19 00:39:18;;;;;;;;;9.00;9.00;;;;;13.76;59.11;100777.78;4894557;29;45669;-81
2022/04/19 00:41:43;;;;;;;;;11.00;11.00;;;;;13.70;59.26;100781.34;4895344;29;45535;-81
2022/04/19 00:44:09;;;;;;;;;10.00;10.00;;;;;13.60;59.20;100768.84;4894082;29;46491;-80
2022/04/19 00:46:34;;;;;;;;;12.33;9.00;;;;;13.45;58.70;100755.44;4894355;29;45516;-81
2022/04/19 00:52:21;;;;;;;;;6.67;6.67;;;;;13.32;59.85;100768.78;4895551;29;45467;-81
2022/04/19 00:54:47;;;;;;;;;9.33;9.33;;;;;13.29;58.47;100775.84;4878916;29;46995;-82
2022/04/19 00:57:14;;;;;;;;;4.67;4.67;;;;;13.26;58.19;100768.72;4895983;28;45425;-83
2022/04/19 00:59:41;;;;;;;;;5.67;5.67;;;;;13.20;58.86;100772.25;4879147;29;45469;-83
2022/04/19 01:02:06;;;;;;;;;6.00;6.00;;;;;12.92;58.73;100739.22;4878197;29;45761;-81
2022/04/19 01:04:32;;;;;;;;;6.67;6.67;;;;;13.00;58.96;100758.81;4894317;29;45342;-81
2022/04/19 01:06:59;;;;;;;;;5.67;5.67;;;;;12.95;58.27;100760.59;4894986;29;45421;-81
2022/04/19 01:09:25;;;;;;;;;5.67;5.67;;;;;12.92;59.08;100768.56;4877855;29;45609;-81
2022/04/19 01:14:38;;;;;;;;;5.00;5.00;;;;;12.59;58.36;100714.16;4881474;29;44894;-82
2022/04/19 01:17:07;;;;;;;;;5.67;5.67;;;;;12.88;58.17;100758.75;4877890;29;45438;-81
2022/04/19 01:19:38;;;;;;;;;11.00;8.00;;;;;12.72;58.71;100746.22;4896373;29;45420;-82
2022/04/19 01:22:05;;;;;;;;;8.67;8.00;;;;;12.71;58.66;100752.47;4895969;29;45496;-81
2022/04/19 01:24:31;;;;;;;;;6.67;5.33;;;;;12.68;58.64;100745.31;4895459;29;45474;-81
2022/04/19 01:26:59;;;;;;;;;5.33;5.33;;;;;12.77;57.69;100752.50;4895691;29;45875;-82
2022/04/19 01:29:27;;;;;;;;;4.33;4.33;;;;;12.77;57.52;100750.72;4863695;29;44914;-83
2022/04/19 01:31:54;;;;;;;;;8.00;7.00;;;;;12.81;57.38;100756.97;4879432;29;45447;-84
2022/04/19 01:34:20;;;;;;;;;6.00;6.00;;;;;12.74;56.98;100748.00;4879243;29;46940;-82
2022/04/19 01:36:46;;;;;;;;;6.00;5.00;;;;;12.80;57.04;100749.81;4877614;29;45748;-84
2022/04/19 01:39:13;;;;;;;;;6.33;5.67;;;;;12.89;57.05;100757.00;4880649;29;45788;-82
2022/04/19 01:41:40;;;;;;;;;7.00;5.67;;;;;12.83;56.58;100748.97;4879761;29;44996;-82
2022/04/19 01:44:08;;;;;;;;;5.67;4.00;;;;;12.85;57.03;100742.75;4895865;29;45468;-81
2022/04/19 01:46:34;;;;;;;;;8.00;5.00;;;;;12.72;57.16;100747.13;4896438;28;45498;-81
2022/04/19 01:49:06;;;;;;;;;6.67;5.00;;;;;12.75;56.89;100738.25;4894802;29;45409;-81
2022/04/19 01:51:36;;;;;;;;;5.00;4.00;;;;;12.66;56.58;100740.88;4894274;29;45492;-82
2022/04/19 01:54:02;;;;;;;;;4.67;4.67;;;;;12.63;56.77;100760.44;4876720;29;47653;-83
2022/04/19 01:56:27;;;;;;;;;7.00;6.67;;;;;12.56;56.52;100751.50;4877191;29;45449;-82
2022/04/19 01:58:53;;;;;;;;;8.00;8.00;;;;;12.54;56.59;100747.00;4877659;29;45417;-82
2022/04/19 02:01:19;;;;;;;;;3.33;3.33;;;;;12.55;56.58;100755.03;4879189;29;45411;-81
2022/04/19 02:03:44;;;;;;;;;5.00;5.00;;;;;12.54;57.07;100758.59;4878578;29;47122;-82
2022/04/19 02:06:12;;;;;;;;;4.33;3.67;;;;;12.56;57.08;100762.16;4895009;29;44833;-81
2022/04/19 02:08:38;;;;;;;;;6.00;6.00;;;;;12.41;57.44;100757.59;4879329;29;44814;-83
2022/04/19 02:11:04;;;;;;;;;3.67;3.00;;;;;12.37;56.80;100754.91;4897354;28;44805;-82
2022/04/19 02:13:32;;;;;;;;;4.00;3.00;;;;;12.32;56.75;100745.97;4878417;29;46777;-82
2022/04/19 02:16:01;;;;;;;;;3.00;3.00;;;;;12.28;57.35;100738.84;4880139;29;45414;-81
2022/04/19 02:18:27;;;;;;;;;3.00;3.00;;;;;12.35;57.02;100757.56;4880257;29;45455;-82
2022/04/19 02:20:52;;;;;;;;;4.33;3.67;;;;;12.30;57.44;100750.41;4896057;29;45541;-82
2022/04/19 02:23:18;;;;;;;;;4.00;4.00;;;;;12.19;57.08;100735.22;4896481;29;45498;-81
2022/04/19 02:25:44;;;;;;;;;3.00;3.00;;;;;12.25;57.30;100747.72;4880720;29;45605;-82
2022/04/19 02:28:10;;;;;;;;;9.67;5.33;;;;;12.25;57.20;100746.84;4879439;29;45483;-83
2022/04/19 02:30:36;;;;;;;;;4.33;4.33;;;;;12.29;57.31;100748.63;4896415;29;45486;-81
2022/04/19 02:33:02;;;;;;;;;5.67;5.67;;;;;12.30;58.16;100750.41;4895321;28;46045;-82
2022/04/19 02:35:28;;;;;;;;;5.67;4.00;;;;;12.30;57.60;100737.06;4897046;29;45360;-82
2022/04/19 02:37:59;;;;;;;;;5.00;5.00;;;;;12.44;57.36;100748.72;4877895;29;45376;-82
2022/04/19 02:40:26;;;;;;;;;8.67;5.00;;;;;12.31;57.70;100747.75;4877775;29;45801;-82
2022/04/19 02:42:54;;;;;;;;;6.00;6.00;;;;;12.19;57.92;100734.34;4894863;29;45500;-81
2022/04/19 02:45:26;;;;;;;;;3.33;3.33;;;;;12.26;58.69;100746.84;4908034;29;45609;-81
2022/04/19 02:48:06;;;;;;;;;7.00;4.67;;;;;12.23;58.57;100751.25;4894425;29;45443;-81
2022/04/19 02:50:43;;;;;;;;;6.00;4.00;;;;;12.15;59.30;100744.09;4893443;29;45510;-80
2022/04/19 02:53:09;;;;;;;;;7.00;5.00;;;;;11.97;60.29;100738.63;4877033;29;47011;-83
2022/04/19 02:55:35;;;;;;;;;7.33;5.00;;;;;11.93;58.99;100748.34;4893717;29;44863;-81
2022/04/19 02:58:00;;;;;;;;;8.33;7.67;;;;;11.94;59.25;100738.59;4876709;29;45471;-82
2022/04/19 03:00:26;;;;;;;;;5.00;4.00;;;;;11.93;59.33;100726.13;4892294;29;45362;-81
2022/04/19 03:02:52;;;;;;;;;7.67;7.00;;;;;11.95;58.57;100722.59;4892401;29;45327;-81
2022/04/19 03:05:18;;;;;;;;;6.33;4.00;;;;;12.04;58.80;100731.53;4893113;29;45493;-84
2022/04/19 03:07:44;;;;;;;;;4.00;4.00;;;;;12.04;58.99;100728.88;4895736;29;45440;-82
2022/04/19 03:10:10;;;;;;;;;4.33;4.33;;;;;12.01;59.06;100719.97;4894087;29;45462;-82
2022/04/19 03:12:44;;;;;;;;;5.00;5.00;;;;;12.06;59.64;100722.72;4877560;29;46463;-82
2022/04/19 03:15:12;;;;;;;;;6.33;6.33;;;;;11.95;60.03;100724.38;4878530;29;45362;-80
2022/04/19 03:17:40;;;;;;;;;7.00;5.33;;;;;11.93;59.04;100718.16;4878170;29;45500;-81
2022/04/19 03:20:09;;;;;;;;;4.33;4.00;;;;;11.89;59.02;100724.34;4866904;29;45432;-82
2022/04/19 03:28:05;;;;;;;;;8.33;7.67;;;;;12.00;59.38;100723.53;4874300;29;45269;-82
2022/04/19 03:30:30;;;;;;;;;5.00;5.00;;;;;12.00;58.66;100715.56;4874239;29;45928;-80
2022/04/19 03:32:56;;;;;;;;;8.00;4.00;;;;;11.97;60.68;100711.97;4874728;29;45995;-83
2022/04/19 03:35:21;;;;;;;;;7.00;5.00;;;;;11.98;60.20;100727.09;4874808;29;45937;-83
2022/04/19 03:37:47;;;;;;;;;4.00;4.00;;;;;11.98;60.08;100719.09;4876203;29;45388;-82
2022/04/19 03:40:14;;;;;;;;;7.00;4.00;;;;;11.90;60.15;100704.81;4875191;29;45475;-82
2022/04/19 03:42:42;;;;;;;;;5.00;5.00;;;;;11.98;60.22;100703.09;4859095;29;48093;-82
2022/04/19 03:45:10;;;;;;;;;7.67;6.33;;;;;12.12;60.00;100711.16;4858362;29;45444;-81
2022/04/19 03:47:36;;;;;;;;;7.00;7.00;;;;;12.06;60.51;100709.38;4858708;29;45680;-82
2022/04/19 03:50:02;;;;;;;;;4.33;4.33;;;;;12.04;59.76;100719.13;4874506;29;45433;-83
2022/04/19 03:52:27;;;;;;;;;5.67;5.67;;;;;12.01;60.40;100708.44;4858498;29;47393;-81
2022/04/19 03:54:53;;;;;;;;;7.00;3.67;;;;;11.97;59.73;100690.63;4874341;28;45494;-80
2022/04/19 03:57:19;;;;;;;;;4.67;4.67;;;;;12.02;60.22;100694.25;4857910;29;45468;-80
2022/04/19 03:59:44;;;;;;;;;5.67;4.33;;;;;12.08;59.71;100715.63;4874654;29;45523;-82
2022/04/19 04:02:10;;;;;;;;;4.33;4.00;;;;;12.05;60.30;100702.25;4873528;29;45378;-82
2022/04/19 04:04:37;;;;;;;;;3.67;3.67;;;;;12.14;60.28;100705.00;4873454;29;45820;-81
2022/04/19 04:07:05;;;;;;;;;5.00;4.00;;;;;12.16;59.39;100711.22;4888742;29;45419;-82
2022/04/19 04:09:35;;;;;;;;;5.33;3.00;;;;;12.09;59.93;100714.72;4872515;29;45378;-81
2022/04/19 04:12:05;;;;;;;;;6.67;4.67;;;;;12.19;59.87;100708.56;4856962;29;47171;-82
2022/04/19 04:14:32;;;;;;;;;5.67;5.67;;;;;12.08;60.04;100710.28;4874779;29;44939;-82
2022/04/19 04:16:58;;;;;;;;;3.00;3.00;;;;;12.08;60.28;100712.94;4856618;29;45371;-81
2022/04/19 04:19:23;;;;;;;;;4.00;2.67;;;;;12.12;59.71;100711.16;4878565;29;45055;-81
2022/04/19 04:21:49;;;;;;;;;5.67;3.00;;;;;12.15;60.13;100712.09;4892243;29;45521;-81
2022/04/19 04:24:15;;;;;;;;;4.00;3.00;;;;;12.21;60.13;100709.47;4875589;29;45471;-84
2022/04/19 04:26:41;;;;;;;;;7.33;4.00;;;;;12.08;59.33;100698.69;4876735;29;45422;-81
2022/04/19 04:29:06;;;;;;;;;4.00;4.00;;;;;12.16;59.95;100711.22;4876837;29;45397;-81
2022/04/19 04:31:32;;;;;;;;;3.00;3.00;;;;;12.11;61.05;100707.63;4892854;29;46024;-82
2022/04/19 04:33:57;;;;;;;;;3.33;3.00;;;;;12.11;60.65;100720.06;4876601;29;45561;-82
2022/04/19 04:36:24;;;;;;;;;2.00;2.00;;;;;12.04;60.08;100702.22;4875059;29;45447;-82
2022/04/19 04:38:49;;;;;;;;;6.33;4.00;;;;;11.97;60.35;100706.63;4890452;29;45347;-83
2022/04/19 04:41:15;;;;;;;;;2.00;2.00;;;;;11.91;61.91;100717.25;4889002;29;46055;-81
2022/04/19 04:43:40;;;;;;;;;1.00;1.00;;;;;11.75;63.72;100706.41;4891718;29;45555;-80
2022/04/19 04:51:35;;;;;;;;;3.33;3.33;;;;;11.79;62.35;100732.19;4891629;29;45719;-80
2022/04/19 04:54:01;;;;;;;;;5.67;3.00;;;;;11.78;61.52;100721.56;4892178;29;45488;-80
2022/04/19 04:56:27;;;;;;;;;4.00;4.00;;;;;11.78;62.44;100733.09;4890867;29;45518;-81
2022/04/19 04:58:53;;;;;;;;;4.33;2.00;;;;;11.76;63.00;100732.19;4892344;29;45441;-83
2022/04/19 05:01:18;;;;;;;;;3.33;3.33;;;;;11.77;62.35;100731.28;4872686;29;46537;-83
2022/04/19 05:03:44;;;;;;;;;2.00;2.00;;;;;11.77;63.08;100725.09;4889614;29;45375;-82
2022/04/19 05:06:10;;;;;;;;;3.00;3.00;;;;;11.84;64.92;100742.03;4872664;29;45441;-82
2022/04/19 05:08:36;;;;;;;;;5.00;5.00;;;;;11.71;65.50;100730.34;4874466;29;45583;-83
2022/04/19 05:11:02;;;;;;;;;3.00;3.00;;;;;11.65;65.60;100731.19;4891266;28;45395;-82
2022/04/19 05:13:27;;;;;;;;;4.00;4.00;;;;;11.65;63.59;100727.63;4873914;29;44825;-82
2022/04/19 05:15:53;;;;;;;;;3.33;3.00;;;;;11.72;64.94;100727.72;4890642;29;45433;-82
2022/04/19 05:21:46;;;;;;;;;2.00;2.00;;;;;11.82;64.95;100734.03;4889942;29;45415;-83
2022/04/19 05:24:12;;;;;;;;;4.67;4.00;;;;;11.74;65.71;100736.59;4877468;29;45848;-82
2022/04/19 05:26:37;;;;;;;;;2.67;2.67;;;;;11.77;64.35;100722.41;4897863;29;45468;-82
2022/04/19 05:29:03;;;;;;;;;4.33;3.00;;;;;11.82;65.10;100728.69;4881238;29;45459;-81
2022/04/19 05:31:30;;;;;;;;;8.67;4.33;;;;;11.94;64.76;100727.94;4881520;29;47453;-82
2022/04/19 05:33:56;;;;;;;;;3.67;3.00;;;;;11.87;65.48;100726.06;4898349;29;45374;-83
2022/04/19 05:36:22;;;;;;;;;3.00;3.00;;;;;11.90;64.69;100731.47;4880958;29;45487;-82
2022/04/19 05:38:52;;;;;;;;;4.33;3.00;;;;;11.91;66.00;100744.78;4897997;29;45439;-82
2022/04/19 05:41:19;;;;;;;;;5.00;4.00;;;;;11.90;65.73;100736.78;4897340;29;46376;-82
2022/04/19 05:43:44;;;;;;;;;4.00;4.00;;;;;11.86;68.00;100741.16;4878137;29;45509;-82
2022/04/19 05:46:10;;;;;;;;;5.00;3.67;;;;;11.79;66.35;100729.53;4879129;29;45444;-83
2022/04/19 05:48:35;;;;;;;;;4.00;4.00;;;;;11.87;68.16;100731.38;4862755;29;45697;-83
2022/04/19 05:51:01;;;;;;;;;9.00;4.33;;;;;11.91;65.66;100738.56;4878428;29;47838;-83
2022/04/19 05:53:26;;;;;;;;;3.00;3.00;;;;;11.94;67.47;100738.59;4878154;29;45536;-81
2022/04/19 05:55:53;;;;;;;;;3.67;2.00;;;;;11.96;66.30;100736.84;4877403;29;45758;-81
2022/04/19 05:58:19;;;;;;;;;7.33;4.00;;;;;12.03;66.48;100740.44;4894738;29;44881;-82
2022/04/19 06:00:45;;;;;;;;;7.67;4.00;;;;;12.09;66.75;100728.03;4877598;29;47136;-84
2022/04/19 06:09:20;;;;;;;;;5.00;5.00;;;;;12.40;66.41;100737.16;4893172;29;45440;-84
2022/04/19 06:11:46;;;;;;;;;4.00;4.00;;;;;12.45;66.74;100730.97;4877136;28;46953;-84
2022/04/19 06:14:12;;;;;;;;;4.33;4.33;;;;;12.41;67.02;100722.06;4877590;28;45358;-83
2022/04/19 06:16:37;;;;;;;;;5.67;4.00;;;;;12.58;66.89;100736.41;4894524;29;45588;-82
2022/04/19 06:22:25;;;;;;;;;8.33;6.33;;;;;12.60;66.96;100741.72;4895235;29;45433;-85
2022/04/19 06:24:55;;;;;;;;;3.33;3.33;;;;;12.51;66.47;100736.34;4878544;29;45576;-84
2022/04/19 06:27:21;;;;;;;;;9.67;7.00;;;;;12.48;69.01;100741.63;4877900;29;45391;-83
2022/04/19 06:29:46;;;;;;;;;8.67;7.00;;;;;12.46;68.21;100733.63;4862658;29;44947;-82
2022/04/19 06:32:59;;;;;;;;;8.00;4.00;;;;;12.66;65.98;100735.53;4894955;29;45527;-82
2022/04/19 06:35:25;;;;;;;;;9.00;6.33;;;;;12.50;67.60;100740.78;4877206;29;45750;-82
2022/04/19 06:37:52;;;;;;;;;8.67;7.67;;;;;12.55;67.63;100736.34;4890006;29;45345;-81
2022/04/19 06:40:17;;;;;;;;;7.67;5.67;;;;;12.60;66.64;100737.28;4891001;29;45672;-82
2022/04/19 06:42:44;;;;;;;;;5.67;5.67;;;;;12.74;66.63;100736.47;4873831;29;46756;-82
2022/04/19 06:45:14;;;;;;;;;9.67;8.00;;;;;12.84;66.00;100724.94;4891913;29;45410;-82
2022/04/19 06:47:44;;;;;;;;;9.00;7.67;;;;;12.96;65.44;100734.78;4891184;29;45443;-83
2022/04/19 06:50:10;;;;;;;;;10.67;8.00;;;;;13.01;64.65;100704.56;4875546;28;45789;-82
2022/04/19 06:52:36;;;;;;;;;10.00;10.00;;;;;13.22;63.73;100726.88;4877405;29;46547;-82
2022/04/19 06:55:02;;;;;;;;;4.33;4.33;;;;;13.23;64.08;100717.97;4875603;29;45385;-83
2022/04/19 06:57:28;;;;;;;;;13.67;11.33;;;;;13.43;63.77;100722.50;4878251;29;45386;-84
2022/04/19 06:59:57;;;;;;;;;14.33;12.00;;;;;13.71;62.68;100721.63;4877755;29;45508;-84
2022/04/19 07:02:23;;;;;;;;;17.67;12.00;;;;;13.62;62.51;100699.38;4877672;29;46927;-83
2022/04/19 07:04:49;;;;;;;;;12.00;11.33;;;;;13.94;61.97;100724.34;4878288;29;45474;-84
2022/04/19 07:07:18;;;;;;;;;16.00;13.00;;;;;14.04;61.41;100714.53;4875822;29;45479;-81
2022/04/19 07:09:49;;;;;;;;;15.67;11.67;;;;;13.94;60.90;100673.53;4875223;29;45508;-83
2022/04/19 07:12:20;;;;;;;;;13.00;11.00;;;;;13.88;60.65;100680.69;4894679;28;46874;-83
2022/04/19 07:14:50;;;;;;;;;4.00;4.00;;;;;13.85;60.29;100697.59;4906078;28;45510;-82
2022/04/19 07:17:24;;;;;;;;;17.00;13.67;;;;;13.69;62.00;100691.34;4890714;28;45563;-83
2022/04/19 07:28:25;;;;;;;;;11.67;11.00;;;;;13.61;60.95;100706.50;4891830;29;45402;-83
2022/04/19 07:30:51;;;;;;;;;11.00;10.33;;;;;13.66;60.82;100718.09;4873981;29;44849;-83
2022/04/19 07:33:17;;;;;;;;;12.33;11.67;;;;;13.63;61.19;100695.81;4878060;29;46062;-83
2022/04/19 07:35:51;;;;;;;;;14.33;10.67;;;;;14.03;61.39;100731.47;4895615;29;45633;-84
2022/04/19 07:42:00;;;;;;;;;14.00;12.67;;;;;14.18;60.03;100728.78;4863523;29;45759;-85
2022/04/19 07:45:11;;;;;;;;;15.00;11.00;;;;;14.27;59.36;100722.53;4863927;29;45168;-85
2022/04/19 07:47:45;;;;;;;;;15.00;12.00;;;;;14.35;59.73;100726.06;4858989;29;44737;-85
2022/04/19 07:50:23;;;;;;;;;12.67;10.33;;;;;14.41;59.18;100719.84;4890653;28;44863;-86
2022/04/19 07:57:41;;;;;;;;;12.67;11.33;;;;;14.82;58.16;100684.03;4855691;29;45000;-86
2022/04/19 08:25:44;;;;;;;;;;;;;;;;;;;;;
2022/04/19 08:41:58;;;;;;;;;13.33;10.00;;;;;16.26;52.80;100709.00;4781395;29;45446;-85
2022/04/19 08:44:48;;;;;;;;;12.33;9.33;;;;;16.22;52.61;100680.41;4796965;29;45492;-83
2022/04/19 08:47:21;;;;;;;;;13.00;11.67;;;;;16.66;52.34;100703.16;4778970;29;45445;-84
2022/04/19 09:00:27;;;;;;;;;;;;;;;;;;;;;
2022/04/19 09:21:29;;;;;;;;;;;;;;;;;;;;;
2022/04/19 09:26:56;;;;;;;;;6.33;6.00;;;;;17.09;49.73;100688.38;4803104;29;45514;-84
2022/04/19 09:29:31;;;;;;;;;12.67;10.33;;;;;16.79;50.30;100656.47;4857452;29;45588;-83
2022/04/19 09:32:14;;;;;;;;;7.00;6.33;;;;;16.82;50.32;100660.94;4859515;29;45593;-84
2022/04/19 09:34:50;;;;;;;;;9.67;7.00;;;;;17.06;50.56;100677.66;4861993;29;45456;-85
2022/04/19 09:37:15;;;;;;;;;16.67;12.67;;;;;16.93;50.36;100648.25;4857939;29;45371;-85
2022/04/19 09:39:47;;;;;;;;;13.33;7.67;;;;;17.29;50.43;100669.25;4860730;29;45393;-83
2022/04/19 09:51:07;;;;;;;;;;;;;;;;;;;;;
2022/04/19 09:52:57;;;;;;;;;11.00;8.33;;;;;17.19;48.96;100649.72;4759139;29;45425;-86
2022/04/19 09:55:36;;;;;;;;;11.67;10.00;;;;;17.29;49.17;100659.41;4754881;29;45506;-85
2022/04/19 10:15:25;;;;;;;;;9.33;8.67;;;;;18.52;47.57;100611.50;2978137;23;45551;-85
2022/04/19 10:22:01;;;;;;;;;14.33;11.67;;;;;18.74;46.60;100628.13;4785119;29;46302;-85
2022/04/19 10:24:30;;;;;;;;;15.00;14.00;;;;;18.65;47.10;100625.59;4738248;29;45310;-88
2022/04/19 10:27:09;;;;;;;;;7.00;6.67;;;;;18.61;46.64;100602.34;4773484;29;44853;-85
2022/04/19 10:29:37;;;;;;;;;15.00;14.00;;;;;18.70;46.56;100606.63;4782010;29;45538;-86
2022/04/19 10:32:08;;;;;;;;;15.67;14.00;;;;;19.03;46.64;100617.63;4766911;29;45733;-85
2022/04/19 10:34:50;;;;;;;;;21.33;16.00;;;;;18.88;46.26;100600.88;4767035;29;45566;-86
2022/04/19 10:37:23;;;;;;;;;24.67;22.33;;;;;18.98;46.25;100615.91;4766686;29;45366;-86
2022/04/19 10:40:06;;;;;;;;;18.00;15.67;;;;;18.96;46.84;100612.38;4780426;29;45449;-85
2022/04/19 10:42:50;;;;;;;;;23.00;17.67;;;;;19.11;45.69;100616.53;4767938;29;46872;-85
2022/04/19 10:45:24;;;;;;;;;18.67;17.33;;;;;18.99;46.32;100588.06;4774037;29;44970;-85
2022/04/19 10:48:16;;;;;;;;;22.00;17.33;;;;;19.17;45.59;100605.59;4788368;29;44919;-85
2022/04/19 10:51:43;;;;;;;;;18.00;17.67;;;;;18.95;46.08;100572.88;4774762;29;44948;-84
2022/04/19 10:54:08;;;;;;;;;19.33;17.00;;;;;18.88;46.26;100560.44;4777059;29;45532;-84
2022/04/19 11:00:25;;;;;;;;;21.67;16.33;;;;;19.07;45.36;100597.78;4892069;29;45426;-85
2022/04/19 11:13:16;;;;;;;;;17.00;17.00;;;;;19.36;45.54;100588.97;4834069;29;46123;-83
2022/04/19 11:15:44;;;;;;;;;20.33;16.00;;;;;19.39;45.76;100579.00;4813927;29;45222;-84
2022/04/19 11:18:50;;;;;;;;;17.00;15.67;;;;;19.47;45.55;100576.13;4815478;29;47323;-86
2022/04/19 11:22:06;;;;;;;;;;;;;;;;;;;;;
2022/04/19 11:28:02;;;;;;;;;17.33;16.33;;;;;19.69;45.53;100600.75;4804844;29;45427;-83
2022/04/19 11:33:43;;;;;;;;;17.33;14.33;;;;;19.46;46.07;100551.88;4808593;29;45514;-84
2022/04/19 11:36:16;;;;;;;;;17.00;13.33;;;;;19.80;45.16;100596.91;4819124;29;45658;-84
2022/04/19 11:38:48;;;;;;;;;14.33;14.33;;;;;19.73;46.11;100586.28;4815171;29;45438;-83
2022/04/19 11:48:29;;;;;;;;;;;;;;;;;;;;;
2022/04/19 11:52:20;;;;;;;;;11.33;11.33;;;;;19.87;45.59;100548.09;4796829;29;64867;-84
2022/04/19 11:54:56;;;;;;;;;15.33;15.00;;;;;20.07;45.22;100560.19;4729405;30;46194;-83
2022/04/19 11:57:23;;;;;;;;;15.67;11.00;;;;;20.21;45.30;100574.16;4711297;30;45473;-84
2022/04/19 12:00:10;;;;;;;;;8.00;8.00;;;;;20.35;43.58;100568.38;4724326;30;45634;-84
2022/04/19 12:02:37;;;;;;;;;11.67;10.00;;;;;20.39;44.14;100589.84;4723024;30;45398;-84
2022/04/19 12:05:06;;;;;;;;;10.00;8.00;;;;;20.38;43.36;100541.28;4729824;30;46412;-84
2022/04/19 12:07:52;;;;;;;;;6.33;6.33;;;;;20.80;42.52;100594.97;4728685;30;45458;-83
2022/04/19 12:10:18;;;;;;;;;10.00;8.67;;;;;20.73;42.43;100588.88;4725232;30;45704;-84
2022/04/19 12:12:44;;;;;;;;;9.33;6.67;;;;;20.71;42.60;100579.94;4723650;30;45381;-84
2022/04/19 12:15:40;;;;;;;;;8.67;8.67;;;;;20.85;42.58;100584.03;4731010;29;46607;-83
2022/04/19 12:18:09;;;;;;;;;5.33;5.33;;;;;20.58;42.67;100547.00;4742829;30;45551;-83
2022/04/19 12:20:44;;;;;;;;;7.67;7.33;;;;;20.84;42.97;100585.84;4783926;29;45079;-83
2022/04/19 12:23:20;;;;;;;;;7.33;6.00;;;;;20.69;42.63;100553.91;4797253;29;44987;-84
2022/04/19 12:26:10;;;;;;;;;6.33;6.00;;;;;20.63;42.03;100575.69;4797932;29;46780;-84
2022/04/19 12:28:45;;;;;;;;;9.33;9.33;;;;;20.46;42.76;100581.56;4797755;29;45607;-81
2022/04/19 12:31:47;;;;;;;;;8.67;7.00;;;;;20.29;42.66;100572.13;4869664;29;45879;-83
2022/04/19 12:34:15;;;;;;;;;9.67;9.00;;;;;20.08;43.18;100562.84;4866263;29;45444;-83
2022/04/19 12:40:03;;;;;;;;;9.67;7.33;;;;;19.96;43.06;100557.78;4878193;29;45020;-82
2022/04/19 12:42:29;;;;;;;;;9.67;7.33;;;;;19.60;42.95;100544.31;4870694;29;45448;-84
2022/04/19 12:45:10;;;;;;;;;7.33;7.00;;;;;19.77;43.59;100551.97;4874850;29;45471;-83
2022/04/19 12:47:37;;;;;;;;;6.33;5.67;;;;;19.59;43.51;100523.66;4874620;29;45423;-83
2022/04/19 12:50:31;;;;;;;;;6.00;6.00;;;;;19.81;43.25;100561.75;4875112;29;45574;-82
2022/04/19 12:53:06;;;;;;;;;6.00;6.00;;;;;19.56;43.46;100538.09;4848593;29;44897;-84
2022/04/19 12:56:11;;;;;;;;;7.67;6.33;;;;;19.65;43.00;100541.50;4875094;29;45484;-83
2022/04/19 12:58:46;;;;;;;;;8.00;5.67;;;;;19.62;43.01;100538.88;4871912;29;46738;-82
2022/04/19 13:01:24;;;;;;;;;;;;;;;;;;;;;
2022/04/19 13:14:00;;;;;;;;;5.00;4.33;;;;;20.09;41.84;100521.41;4693343;30;45525;-84
2022/04/19 13:16:53;;;;;;;;;7.33;7.00;;;;;20.25;41.01;100537.16;4700370;30;44938;-84
2022/04/19 13:19:42;;;;;;;;;5.33;4.00;;;;;20.24;40.93;100525.50;4681774;30;44967;-83
2022/04/19 13:22:37;;;;;;;;;4.00;4.00;;;;;19.97;41.32;100492.94;4680804;30;45609;-83
2022/04/19 13:25:07;;;;;;;;;4.33;4.33;;;;;20.08;41.49;100518.75;4688180;30;45391;-82
2022/04/19 13:28:00;;;;;;;;;;;;;;;;;;;;;
2022/04/19 13:30:42;;;;;;;;;6.00;4.33;;;;;19.97;42.10;100519.94;4695253;30;66202;-83
2022/04/19 13:34:02;;;;;;;;;5.00;5.00;;;;;20.07;42.08;100514.28;4682471;30;47406;-84
2022/04/19 13:36:40;;;;;;;;;4.67;4.67;;;;;20.00;42.20;100516.28;4675787;30;45505;-83
2022/04/19 13:39:10;;;;;;;;;4.67;4.67;;;;;20.04;42.19;100501.75;4661931;30;45886;-84
2022/04/19 13:44:47;;;;;;;;;6.67;6.67;;;;;20.15;41.60;100505.00;4742682;29;45567;-86
2022/04/19 13:47:24;;;;;;;;;4.67;4.67;;;;;20.21;42.03;100508.47;4826621;29;45562;-84
2022/04/19 13:49:55;;;;;;;;;3.00;2.33;;;;;20.04;41.63;100480.16;4873857;29;45522;-84
2022/04/19 13:52:22;;;;;;;;;3.33;2.67;;;;;20.29;41.61;100506.44;4863684;29;45413;-83
2022/04/19 13:55:18;;;;;;;;;4.67;4.67;;;;;20.38;41.13;100495.38;4881172;29;45103;-84
2022/04/19 13:57:47;;;;;;;;;3.67;3.67;;;;;20.26;41.39;100479.50;4878912;29;45083;-83
2022/04/19 14:00:13;;;;;;;;;7.67;6.00;;;;;20.25;41.39;100494.84;4868959;29;45414;-83
2022/04/19 14:02:39;;;;;;;;;6.00;6.00;;;;;20.25;41.65;100464.25;4890370;29;44928;-84
2022/04/19 14:05:09;;;;;;;;;4.67;4.33;;;;;21.41;39.73;100455.97;4875568;29;45432;-82
2022/04/19 14:07:43;;;;;;;;;8.00;6.33;;;;;23.61;37.84;100440.03;4870856;29;44977;-83
2022/04/19 14:10:11;;;;;;;;;8.00;6.67;;;;;25.80;34.84;100429.34;4869213;29;45435;-84
2022/04/19 14:12:40;;;;;;;;;6.00;4.00;;;;;27.56;31.25;100450.22;4875931;29;45837;-85
2022/04/19 14:16:05;;;;;;;;;;;;;;;;;;;;;
2022/04/19 14:18:38;;;;;;;;;6.00;6.00;;;;;30.84;30.51;100437.91;4843963;29;71999;-84
2022/04/19 14:21:18;;;;;;;;;3.00;3.00;;;;;31.47;26.08;100408.41;4836289;29;45497;-83
2022/04/19 14:24:08;;;;;;;;;;;;;;;;;;;;;
2022/04/19 14:26:44;;;;;;;;;6.00;6.00;;;;;33.74;27.32;100433.69;4851837;29;74455;-84
2022/04/19 14:34:47;;;;;;;;;11.00;10.67;;;;;34.81;22.05;100415.69;4856350;29;45522;-84
2022/04/19 14:38:00;;;;;;;;;7.33;7.33;;;;;34.85;22.25;100417.16;4854516;29;47270;-85
2022/04/19 14:41:18;;;;;;;;;;;;;;;;;;;;;
2022/04/19 14:43:44;;;;;;;;;7.00;5.00;;;;;32.83;21.77;100394.63;4836459;29;67371;-82
2022/04/19 14:46:10;;;;;;;;;5.33;5.33;;;;;31.42;23.50;100418.81;4855473;29;45489;-82
2022/04/19 14:49:38;;;;;;;;;;;;;;;;;;;;;
2022/04/19 14:52:18;;;;;;;;;5.33;5.33;;;;;30.61;26.22;100433.28;4745828;30;45757;-82
2022/04/19 14:54:46;;;;;;;;;5.67;5.67;;;;;32.52;25.62;100434.84;4727068;30;45521;-82
2022/04/19 14:57:13;;;;;;;;;4.00;4.00;;;;;33.54;23.79;100422.50;4744987;30;45785;-83
2022/04/19 14:59:39;;;;;;;;;7.67;6.00;;;;;32.17;24.06;100435.88;4732609;30;47084;-83
2022/04/19 15:02:08;;;;;;;;;5.33;3.00;;;;;30.51;23.99;100433.09;4735134;30;45330;-84
2022/04/19 15:05:09;;;;;;;;;6.33;5.67;;;;;31.44;24.71;100393.97;4745703;30;45559;-83
2022/04/19 15:07:37;;;;;;;;;5.00;5.00;;;;;30.05;24.89;100398.91;4714834;30;45460;-83
2022/04/19 15:10:19;;;;;;;;;6.00;6.00;;;;;28.36;26.33;100410.53;4736079;30;47121;-83
2022/04/19 15:12:45;;;;;;;;;5.00;4.00;;;;;26.85;27.54;100408.91;4729841;30;45532;-82
2022/04/19 15:15:11;;;;;;;;;3.67;3.33;;;;;25.94;29.01;100408.59;4734337;30;45388;-83
2022/04/19 15:17:36;;;;;;;;;3.00;3.00;;;;;25.29;30.20;100415.72;4740598;30;45527;-83
2022/04/19 15:20:05;;;;;;;;;5.33;4.00;;;;;24.53;31.39;100434.91;4716705;30;45433;-83